createdAt,value
2022-07-28T00:00:03.000Z,13.40
2022-07-28T00:01:02.977Z,13.40
2022-07-28T00:02:03.030Z,13.40
2022-07-28T00:03:02.931Z,13.40
2022-07-28T00:04:02.950Z,13.30
2022-07-28T00:05:02.955Z,13.30
2022-07-28T00:06:02.926Z,13.30
2022-07-28T00:07:02.984Z,13.30
2022-07-28T00:08:03.117Z,13.30
2022-07-28T00:09:03.178Z,13.30
2022-07-28T00:10:03.607Z,13.30
2022-07-28T00:12:03.550Z,13.30
2022-07-28T00:13:03.907Z,13.20
2022-07-28T00:14:03.560Z,13.20
2022-07-28T00:15:03.494Z,13.20
2022-07-28T00:16:03.619Z,13.20
2022-07-28T00:17:03.628Z,13.20
2022-07-28T00:18:03.621Z,13.20
2022-07-28T00:19:03.565Z,13.20
2022-07-28T00:20:03.549Z,13.10
2022-07-28T00:21:03.578Z,13.10
2022-07-28T00:22:02.638Z,13.10
2022-07-28T00:23:02.754Z,13.10
2022-07-28T00:24:02.723Z,13.10
2022-07-28T00:25:02.689Z,13.10
2022-07-28T00:26:02.697Z,13.10
2022-07-28T00:27:03.535Z,13.10
2022-07-28T00:28:03.577Z,13.10
2022-07-28T00:29:02.672Z,13.00
2022-07-28T00:30:02.653Z,13.00
2022-07-28T00:31:04.946Z,13.00
2022-07-28T00:32:02.913Z,13.00
2022-07-28T00:33:02.916Z,13.00
2022-07-28T00:34:02.882Z,13.00
2022-07-28T00:35:03.063Z,12.90
2022-07-28T00:36:03.034Z,12.90
2022-07-28T00:37:03.079Z,12.90
2022-07-28T00:38:03.212Z,12.90
2022-07-28T00:39:03.173Z,12.90
2022-07-28T00:40:03.546Z,12.90
2022-07-28T00:41:03.521Z,12.90
2022-07-28T00:42:03.567Z,12.80
2022-07-28T00:43:03.586Z,12.80
2022-07-28T00:44:03.225Z,12.80
2022-07-28T00:45:03.240Z,12.80
2022-07-28T00:46:03.231Z,12.80
2022-07-28T00:47:03.273Z,12.70
2022-07-28T00:48:03.185Z,12.70
2022-07-28T00:49:03.268Z,12.70
2022-07-28T00:50:03.130Z,12.70
2022-07-28T00:51:03.176Z,12.70
2022-07-28T00:52:03.241Z,12.70
2022-07-28T00:53:03.258Z,12.70
2022-07-28T00:54:03.224Z,12.70
2022-07-28T00:55:03.157Z,12.70
2022-07-28T00:56:05.948Z,12.70
2022-07-28T00:57:03.149Z,12.70
2022-07-28T00:58:03.496Z,12.70
2022-07-28T00:59:03.537Z,12.70
2022-07-28T01:00:03.548Z,12.70
2022-07-28T01:01:02.659Z,12.60
2022-07-28T01:02:02.734Z,12.60
2022-07-28T01:03:02.779Z,12.60
2022-07-28T01:04:02.712Z,12.60
2022-07-28T01:05:02.647Z,12.60
2022-07-28T01:06:02.654Z,12.60
2022-07-28T01:07:02.596Z,12.60
2022-07-28T01:08:02.705Z,12.60
2022-07-28T01:09:02.852Z,12.50
2022-07-28T01:10:02.878Z,12.50
2022-07-28T01:11:02.931Z,12.50
2022-07-28T01:12:02.898Z,12.50
2022-07-28T01:13:02.845Z,12.50
2022-07-28T01:14:02.932Z,12.40
2022-07-28T01:15:02.967Z,12.40
2022-07-28T01:16:03.004Z,12.40
2022-07-28T01:17:03.014Z,12.40
2022-07-28T01:18:03.042Z,12.40
2022-07-28T01:19:02.968Z,12.40
2022-07-28T01:20:03.023Z,12.40
2022-07-28T01:21:03.162Z,12.40
2022-07-28T01:22:03.080Z,12.40
2022-07-28T01:23:03.011Z,12.40
2022-07-28T01:24:03.011Z,12.30
2022-07-28T01:25:02.671Z,12.30
2022-07-28T01:26:02.917Z,12.30
2022-07-28T01:27:02.931Z,12.30
2022-07-28T01:28:03.415Z,12.30
2022-07-28T01:29:03.439Z,12.30
2022-07-28T01:30:03.454Z,12.30
2022-07-28T01:31:03.454Z,12.30
2022-07-28T01:32:03.440Z,12.30
2022-07-28T01:33:03.514Z,12.30
2022-07-28T01:34:03.457Z,12.20
2022-07-28T01:35:04.007Z,12.20
2022-07-28T01:36:03.528Z,12.20
2022-07-28T01:37:03.551Z,12.20
2022-07-28T01:38:02.608Z,12.20
2022-07-28T01:39:03.632Z,12.20
2022-07-28T01:40:02.612Z,12.20
2022-07-28T01:41:02.626Z,12.20
2022-07-28T01:42:02.676Z,12.20
2022-07-28T01:43:02.644Z,12.20
2022-07-28T01:44:02.740Z,12.20
2022-07-28T01:45:02.754Z,12.10
2022-07-28T01:46:02.746Z,12.10
2022-07-28T01:47:02.760Z,12.10
2022-07-28T01:48:02.775Z,12.10
2022-07-28T01:49:02.858Z,12.10
2022-07-28T01:50:02.869Z,12.10
2022-07-28T01:51:02.862Z,12.10
2022-07-28T01:52:02.893Z,12.10
2022-07-28T01:53:02.906Z,12.10
2022-07-28T01:54:02.950Z,12.10
2022-07-28T01:55:02.965Z,12.00
2022-07-28T01:56:02.994Z,12.00
2022-07-28T01:57:03.018Z,12.00
2022-07-28T01:58:02.975Z,12.00
2022-07-28T01:59:02.925Z,12.00
2022-07-28T02:00:02.920Z,12.00
2022-07-28T02:01:02.974Z,12.00
2022-07-28T02:02:03.088Z,12.00
2022-07-28T02:03:02.933Z,12.00
2022-07-28T02:04:02.946Z,12.00
2022-07-28T02:05:02.954Z,12.00
2022-07-28T02:06:02.972Z,12.00
2022-07-28T02:07:02.936Z,11.90
2022-07-28T02:08:03.023Z,11.90
2022-07-28T02:09:03.071Z,11.90
2022-07-28T02:10:03.404Z,11.90
2022-07-28T02:11:03.334Z,11.90
2022-07-28T02:12:03.373Z,11.90
2022-07-28T02:13:03.477Z,11.90
2022-07-28T02:14:03.552Z,11.90
2022-07-28T02:15:03.286Z,11.80
2022-07-28T02:16:03.356Z,11.80
2022-07-28T02:17:03.338Z,11.80
2022-07-28T02:18:03.452Z,11.80
2022-07-28T02:19:03.322Z,11.80
2022-07-28T02:20:03.424Z,11.80
2022-07-28T02:21:03.386Z,11.80
2022-07-28T02:22:03.425Z,11.80
2022-07-28T02:23:03.345Z,11.80
2022-07-28T02:24:03.605Z,11.70
2022-07-28T02:25:03.541Z,11.70
2022-07-28T02:26:03.528Z,11.70
2022-07-28T02:27:02.655Z,11.70
2022-07-28T02:28:03.634Z,11.70
2022-07-28T02:29:02.724Z,11.70
2022-07-28T02:30:02.686Z,11.70
2022-07-28T02:31:02.779Z,11.60
2022-07-28T02:32:02.774Z,11.60
2022-07-28T02:33:03.559Z,11.60
2022-07-28T02:34:02.701Z,11.60
2022-07-28T02:35:02.653Z,11.60
2022-07-28T02:36:02.658Z,11.60
2022-07-28T02:37:02.657Z,11.60
2022-07-28T02:38:03.617Z,11.60
2022-07-28T02:39:02.728Z,11.60
2022-07-28T02:40:02.600Z,11.60
2022-07-28T02:41:02.777Z,11.60
2022-07-28T02:42:02.967Z,11.60
2022-07-28T02:43:03.077Z,11.60
2022-07-28T02:44:03.132Z,11.60
2022-07-28T02:45:03.064Z,11.60
2022-07-28T02:46:03.156Z,11.60
2022-07-28T02:47:03.010Z,11.60
2022-07-28T02:48:02.679Z,11.60
2022-07-28T02:49:03.704Z,11.60
2022-07-28T02:50:02.632Z,11.50
2022-07-28T02:51:03.234Z,11.50
2022-07-28T02:52:03.169Z,11.60
2022-07-28T02:53:14.717Z,11.50
2022-07-28T02:54:03.211Z,11.50
2022-07-28T02:55:03.335Z,11.50
2022-07-28T02:56:02.909Z,11.50
2022-07-28T02:57:02.762Z,11.50
2022-07-28T02:58:02.870Z,11.50
2022-07-28T02:59:02.832Z,11.50
2022-07-28T03:00:02.805Z,11.50
2022-07-28T03:01:02.852Z,11.50
2022-07-28T03:02:02.856Z,11.50
2022-07-28T03:03:02.927Z,11.50
2022-07-28T03:04:03.038Z,11.40
2022-07-28T03:05:03.074Z,11.40
2022-07-28T03:06:03.052Z,11.40
2022-07-28T03:07:03.126Z,11.40
2022-07-28T03:08:03.277Z,11.40
2022-07-28T03:09:03.200Z,11.40
2022-07-28T03:10:03.239Z,11.40
2022-07-28T03:11:03.270Z,11.40
2022-07-28T03:12:03.177Z,11.40
2022-07-28T03:13:03.350Z,11.40
2022-07-28T03:14:03.428Z,11.40
2022-07-28T03:15:03.543Z,11.40
2022-07-28T03:16:03.536Z,11.40
2022-07-28T03:17:03.002Z,11.40
2022-07-28T03:18:02.921Z,11.40
2022-07-28T03:19:03.106Z,11.40
2022-07-28T03:20:02.959Z,11.30
2022-07-28T03:21:02.961Z,11.30
2022-07-28T03:22:03.157Z,11.30
2022-07-28T03:23:03.148Z,11.30
2022-07-28T03:24:03.139Z,11.30
2022-07-28T03:25:03.147Z,11.30
2022-07-28T03:26:03.104Z,11.30
2022-07-28T03:27:03.219Z,11.30
2022-07-28T03:28:03.133Z,11.30
2022-07-28T03:29:03.095Z,11.30
2022-07-28T03:30:03.942Z,11.20
2022-07-28T03:31:03.297Z,11.20
2022-07-28T03:32:02.660Z,11.20
2022-07-28T03:33:03.579Z,11.20
2022-07-28T03:34:02.612Z,11.20
2022-07-28T03:35:02.672Z,11.20
2022-07-28T03:36:02.733Z,11.20
2022-07-28T03:37:02.710Z,11.20
2022-07-28T03:38:02.801Z,11.20
2022-07-28T03:39:02.798Z,11.20
2022-07-28T03:40:02.888Z,11.20
2022-07-28T03:41:02.794Z,11.20
2022-07-28T03:42:02.768Z,11.20
2022-07-28T03:43:05.013Z,11.20
2022-07-28T03:44:02.807Z,11.20
2022-07-28T03:45:04.075Z,11.30
2022-07-28T03:46:03.254Z,11.30
2022-07-28T03:47:03.135Z,11.30
2022-07-28T03:48:03.254Z,11.30
2022-07-28T03:49:03.280Z,11.30
2022-07-28T03:50:03.361Z,11.30
2022-07-28T03:51:03.552Z,11.40
2022-07-28T03:52:02.667Z,11.40
2022-07-28T03:53:02.751Z,11.40
2022-07-28T03:54:02.774Z,11.40
2022-07-28T03:55:02.724Z,11.40
2022-07-28T03:56:02.767Z,11.40
2022-07-28T03:57:02.804Z,11.40
2022-07-28T03:58:02.780Z,11.40
2022-07-28T03:59:03.562Z,11.50
2022-07-28T04:00:07.578Z,11.50
2022-07-28T04:01:03.613Z,11.50
2022-07-28T04:02:03.657Z,11.50
2022-07-28T04:03:03.584Z,11.50
2022-07-28T04:04:03.561Z,11.60
2022-07-28T04:05:03.537Z,11.60
2022-07-28T04:06:03.564Z,11.60
2022-07-28T04:07:03.531Z,11.60
2022-07-28T04:08:02.698Z,11.60
2022-07-28T04:09:02.675Z,11.60
2022-07-28T04:10:02.764Z,11.70
2022-07-28T04:11:02.628Z,11.70
2022-07-28T04:12:02.625Z,11.70
2022-07-28T04:13:02.650Z,11.70
2022-07-28T04:14:02.797Z,11.80
2022-07-28T04:15:02.767Z,11.80
2022-07-28T04:16:02.766Z,11.80
2022-07-28T04:17:02.943Z,11.90
2022-07-28T04:18:02.923Z,11.90
2022-07-28T04:19:02.992Z,11.90
2022-07-28T04:20:03.006Z,12.00
2022-07-28T04:21:03.158Z,12.00
2022-07-28T04:22:03.124Z,12.10
2022-07-28T04:23:03.158Z,12.10
2022-07-28T04:24:03.228Z,12.20
2022-07-28T04:25:02.852Z,12.20
2022-07-28T04:26:02.923Z,12.30
2022-07-28T04:27:02.934Z,12.30
2022-07-28T04:28:03.084Z,12.40
2022-07-28T04:29:03.594Z,12.50
2022-07-28T04:30:03.187Z,12.60
2022-07-28T04:31:02.804Z,12.60
2022-07-28T04:32:02.682Z,12.70
2022-07-28T04:33:02.702Z,12.70
2022-07-28T04:34:02.712Z,12.80
2022-07-28T04:35:02.791Z,12.80
2022-07-28T04:36:02.737Z,12.80
2022-07-28T04:37:02.828Z,12.90
2022-07-28T04:38:02.864Z,12.90
2022-07-28T04:39:02.925Z,13.00
2022-07-28T04:40:02.925Z,13.00
2022-07-28T04:41:02.884Z,13.00
2022-07-28T04:42:02.942Z,13.00
2022-07-28T04:43:02.942Z,13.00
2022-07-28T04:44:03.203Z,13.10
2022-07-28T04:45:03.231Z,13.10
2022-07-28T04:46:03.270Z,13.10
2022-07-28T04:47:06.318Z,13.10
2022-07-28T04:48:03.253Z,13.10
2022-07-28T04:49:03.431Z,13.10
2022-07-28T04:50:03.339Z,13.10
2022-07-28T04:51:03.309Z,13.10
2022-07-28T04:52:03.379Z,13.10
2022-07-28T04:53:03.535Z,13.10
2022-07-28T04:54:03.584Z,13.20
2022-07-28T04:55:02.636Z,13.20
2022-07-28T04:56:02.635Z,13.30
2022-07-28T04:57:02.743Z,13.30
2022-07-28T04:58:02.633Z,13.30
2022-07-28T04:59:02.694Z,13.30
2022-07-28T05:00:02.706Z,13.40
2022-07-28T05:01:02.781Z,13.40
2022-07-28T05:02:02.760Z,13.50
2022-07-28T05:03:02.687Z,13.50
2022-07-28T05:04:02.667Z,13.50
2022-07-28T05:05:02.828Z,13.60
2022-07-28T05:06:02.785Z,13.60
2022-07-28T05:07:07.727Z,13.70
2022-07-28T05:08:02.851Z,13.80
2022-07-28T05:09:02.890Z,13.90
2022-07-28T05:10:02.977Z,14.00
2022-07-28T05:11:03.030Z,14.10
2022-07-28T05:12:03.172Z,14.10
2022-07-28T05:13:03.215Z,14.20
2022-07-28T05:14:03.217Z,14.20
2022-07-28T05:15:03.267Z,14.20
2022-07-28T05:16:03.479Z,14.30
2022-07-28T05:17:03.566Z,14.30
2022-07-28T05:18:03.472Z,14.30
2022-07-28T05:19:03.550Z,14.30
2022-07-28T05:20:03.717Z,14.30
2022-07-28T05:21:03.551Z,14.30
2022-07-28T05:22:03.501Z,14.20
2022-07-28T05:23:03.494Z,14.20
2022-07-28T05:24:03.394Z,14.20
2022-07-28T05:25:03.510Z,14.20
2022-07-28T05:26:02.594Z,14.20
2022-07-28T05:27:02.801Z,14.20
2022-07-28T05:28:02.786Z,14.20
2022-07-28T05:29:02.791Z,14.30
2022-07-28T05:30:02.846Z,14.30
2022-07-28T05:31:02.825Z,14.30
2022-07-28T05:32:07.882Z,14.40
2022-07-28T05:33:03.372Z,14.40
2022-07-28T05:34:03.550Z,14.40
2022-07-28T05:35:03.419Z,14.50
2022-07-28T05:36:03.502Z,14.50
2022-07-28T05:37:03.516Z,14.50
2022-07-28T05:38:06.329Z,14.50
2022-07-28T05:39:03.552Z,14.50
2022-07-28T05:40:03.487Z,14.50
2022-07-28T05:41:03.529Z,14.60
2022-07-28T05:42:03.594Z,14.70
2022-07-28T05:43:03.575Z,14.80
2022-07-28T05:44:03.564Z,14.90
2022-07-28T05:45:02.669Z,15.00
2022-07-28T05:46:02.828Z,15.10
2022-07-28T05:47:02.870Z,15.20
2022-07-28T05:48:02.982Z,15.30
2022-07-28T05:49:03.002Z,15.40
2022-07-28T05:50:03.010Z,15.50
2022-07-28T05:51:03.018Z,15.60
2022-07-28T05:52:02.994Z,15.80
2022-07-28T05:53:03.068Z,15.90
2022-07-28T05:54:03.088Z,16.00
2022-07-28T05:55:03.093Z,16.20
2022-07-28T05:56:03.043Z,16.30
2022-07-28T05:57:03.096Z,16.30
2022-07-28T05:58:03.068Z,16.40
2022-07-28T05:59:03.075Z,16.50
2022-07-28T06:00:03.271Z,16.50
2022-07-28T06:01:03.342Z,16.50
2022-07-28T06:02:03.372Z,16.50
2022-07-28T06:03:03.461Z,16.60
2022-07-28T06:04:24.462Z,16.60
2022-07-28T06:05:03.586Z,16.60
2022-07-28T06:06:15.508Z,16.60
2022-07-28T06:07:02.701Z,16.70
2022-07-28T06:08:02.824Z,16.80
2022-07-28T06:09:02.923Z,16.90
2022-07-28T06:10:02.921Z,17.00
2022-07-28T06:11:02.970Z,17.10
2022-07-28T06:12:03.115Z,17.20
2022-07-28T06:13:02.938Z,17.30
2022-07-28T06:14:03.080Z,17.40
2022-07-28T06:15:03.211Z,17.50
2022-07-28T06:16:03.177Z,17.60
2022-07-28T06:17:03.480Z,17.70
2022-07-28T06:18:03.445Z,17.70
2022-07-28T06:19:03.544Z,17.80
2022-07-28T06:20:03.551Z,17.80
2022-07-28T06:21:03.486Z,17.90
2022-07-28T06:22:03.595Z,18.00
2022-07-28T06:23:02.668Z,18.00
2022-07-28T06:24:02.760Z,18.00
2022-07-28T06:25:02.694Z,18.00
2022-07-28T06:26:02.799Z,18.10
2022-07-28T06:27:03.391Z,18.10
2022-07-28T06:28:03.425Z,18.10
2022-07-28T06:29:03.561Z,18.10
2022-07-28T06:30:03.546Z,18.10
2022-07-28T06:31:03.617Z,18.10
2022-07-28T06:32:03.654Z,18.10
2022-07-28T06:33:03.487Z,18.10
2022-07-28T06:34:03.587Z,18.10
2022-07-28T06:35:03.542Z,18.10
2022-07-28T06:36:03.483Z,18.10
2022-07-28T06:37:03.663Z,18.20
2022-07-28T06:38:02.656Z,18.20
2022-07-28T06:39:02.616Z,18.30
2022-07-28T06:40:02.730Z,18.30
2022-07-28T06:41:02.725Z,18.30
2022-07-28T06:42:02.878Z,18.40
2022-07-28T06:43:02.971Z,18.40
2022-07-28T06:44:03.476Z,18.50
2022-07-28T06:45:03.476Z,18.60
2022-07-28T06:46:03.458Z,18.70
2022-07-28T06:47:03.545Z,18.70
2022-07-28T06:48:03.470Z,18.80
2022-07-28T06:49:03.538Z,18.80
2022-07-28T06:50:03.494Z,18.90
2022-07-28T06:51:03.537Z,19.00
2022-07-28T06:52:03.534Z,19.10
2022-07-28T06:53:03.666Z,19.10
2022-07-28T06:54:06.840Z,19.20
2022-07-28T06:55:02.650Z,19.30
2022-07-28T06:56:02.815Z,19.40
2022-07-28T06:57:02.787Z,19.50
2022-07-28T06:58:02.767Z,19.60
2022-07-28T06:59:02.888Z,19.70
2022-07-28T07:00:02.915Z,19.90
2022-07-28T07:01:03.157Z,20.00
2022-07-28T07:02:03.155Z,20.10
2022-07-28T07:03:03.317Z,20.20
2022-07-28T07:04:03.309Z,20.30
2022-07-28T07:05:03.349Z,20.30
2022-07-28T07:06:03.392Z,20.30
2022-07-28T07:07:03.290Z,20.30
2022-07-28T07:08:03.306Z,20.40
2022-07-28T07:09:03.469Z,20.40
2022-07-28T07:10:03.385Z,20.40
2022-07-28T07:11:03.601Z,20.50
2022-07-28T07:12:03.588Z,20.50
2022-07-28T07:13:02.622Z,20.60
2022-07-28T07:14:02.824Z,20.70
2022-07-28T07:15:02.758Z,20.70
2022-07-28T07:16:02.905Z,20.80
2022-07-28T07:17:02.963Z,20.90
2022-07-28T07:18:02.928Z,20.90
2022-07-28T07:19:06.423Z,21.00
2022-07-28T07:20:02.926Z,21.00
2022-07-28T07:21:02.852Z,21.00
2022-07-28T07:22:02.859Z,21.10
2022-07-28T07:23:02.815Z,21.10
2022-07-28T07:24:02.950Z,21.20
2022-07-28T07:25:02.927Z,21.30
2022-07-28T07:26:03.028Z,21.30
2022-07-28T07:27:02.982Z,21.40
2022-07-28T07:28:02.896Z,21.40
2022-07-28T07:29:02.985Z,21.50
2022-07-28T07:30:02.935Z,21.50
2022-07-28T07:31:02.962Z,21.60
2022-07-28T07:32:05.641Z,21.60
2022-07-28T07:33:02.947Z,21.70
2022-07-28T07:34:03.002Z,21.70
2022-07-28T07:35:03.056Z,21.80
2022-07-28T07:36:03.126Z,21.80
2022-07-28T07:37:03.055Z,21.80
2022-07-28T07:38:03.225Z,21.80
2022-07-28T07:39:03.225Z,21.80
2022-07-28T07:40:02.649Z,21.80
2022-07-28T07:41:02.630Z,21.80
2022-07-28T07:42:02.796Z,21.70
2022-07-28T07:43:02.766Z,21.70
2022-07-28T07:44:02.908Z,21.70
2022-07-28T07:45:03.011Z,21.80
2022-07-28T07:46:03.120Z,21.80
2022-07-28T07:47:03.259Z,21.80
2022-07-28T07:48:03.148Z,21.90
2022-07-28T07:49:03.402Z,21.90
2022-07-28T07:50:04.261Z,21.90
2022-07-28T07:51:03.271Z,21.90
2022-07-28T07:52:03.418Z,21.90
2022-07-28T07:53:03.614Z,21.90
2022-07-28T07:54:03.553Z,21.90
2022-07-28T07:55:02.643Z,21.90
2022-07-28T07:56:02.661Z,21.90
2022-07-28T07:57:02.768Z,21.90
2022-07-28T07:58:02.885Z,21.90
2022-07-28T07:59:02.801Z,21.90
2022-07-28T08:00:02.922Z,21.90
2022-07-28T08:01:03.519Z,22.00
2022-07-28T08:02:03.624Z,22.00
2022-07-28T08:03:03.540Z,22.00
2022-07-28T08:04:03.078Z,22.10
2022-07-28T08:05:02.976Z,22.10
2022-07-28T08:06:02.935Z,22.10
2022-07-28T08:07:03.047Z,22.20
2022-07-28T08:08:03.077Z,22.20
2022-07-28T08:09:03.163Z,22.20
2022-07-28T08:10:03.200Z,22.20
2022-07-28T08:11:03.184Z,22.20
2022-07-28T08:12:03.261Z,22.20
2022-07-28T08:13:03.166Z,22.20
2022-07-28T08:14:03.197Z,22.10
2022-07-28T08:15:03.279Z,22.10
2022-07-28T08:16:03.367Z,22.00
2022-07-28T08:17:03.283Z,22.00
2022-07-28T08:18:03.284Z,22.00
2022-07-28T08:19:03.318Z,22.00
2022-07-28T08:20:03.365Z,22.00
2022-07-28T08:21:03.391Z,22.10
2022-07-28T08:22:03.335Z,22.10
2022-07-28T08:23:03.364Z,22.10
2022-07-28T08:24:03.448Z,22.10
2022-07-28T08:25:03.498Z,22.10
2022-07-28T08:26:03.513Z,22.20
2022-07-28T08:27:03.613Z,22.20
2022-07-28T08:28:03.480Z,22.20
2022-07-28T08:29:03.565Z,22.20
2022-07-28T08:30:02.624Z,22.30
2022-07-28T08:31:02.722Z,22.30
2022-07-28T08:32:02.744Z,22.30
2022-07-28T08:33:02.896Z,22.30
2022-07-28T08:34:02.846Z,22.20
2022-07-28T08:35:30.193Z,22.20
2022-07-28T08:36:02.824Z,22.20
2022-07-28T08:37:03.270Z,22.20
2022-07-28T08:38:03.454Z,22.20
2022-07-28T08:39:03.562Z,22.20
2022-07-28T08:40:03.499Z,22.30
2022-07-28T08:41:03.013Z,22.30
2022-07-28T08:42:03.016Z,22.30
2022-07-28T08:43:02.966Z,22.30
2022-07-28T08:44:02.922Z,22.30
2022-07-28T08:45:02.942Z,22.40
2022-07-28T08:46:03.060Z,22.40
2022-07-28T08:47:03.104Z,22.40
2022-07-28T08:48:08.062Z,22.40
2022-07-28T08:49:03.119Z,22.40
2022-07-28T08:50:03.254Z,22.40
2022-07-28T08:51:03.155Z,22.40
2022-07-28T08:52:03.225Z,22.50
2022-07-28T08:53:03.228Z,22.60
2022-07-28T08:54:03.246Z,22.60
2022-07-28T08:55:03.360Z,22.60
2022-07-28T08:56:03.302Z,22.70
2022-07-28T08:57:03.449Z,22.70
2022-07-28T08:58:03.444Z,22.70
2022-07-28T08:59:03.579Z,22.70
2022-07-28T09:00:03.607Z,22.70
2022-07-28T09:01:03.599Z,22.70
2022-07-28T09:02:02.754Z,22.80
2022-07-28T09:03:02.654Z,22.80
2022-07-28T09:04:02.677Z,22.70
2022-07-28T09:05:02.605Z,22.70
2022-07-28T09:06:02.629Z,22.70
2022-07-28T09:07:02.740Z,22.70
2022-07-28T09:08:02.673Z,22.60
2022-07-28T09:09:02.867Z,22.60
2022-07-28T09:10:03.100Z,22.60
2022-07-28T09:11:02.854Z,22.60
2022-07-28T09:12:02.810Z,22.60
2022-07-28T09:13:02.879Z,22.60
2022-07-28T09:14:02.879Z,22.60
2022-07-28T09:15:03.073Z,22.70
2022-07-28T09:16:03.217Z,22.70
2022-07-28T09:17:05.304Z,22.70
2022-07-28T09:18:03.269Z,22.70
2022-07-28T09:19:03.176Z,22.70
2022-07-28T09:20:06.241Z,22.70
2022-07-28T09:21:03.295Z,22.70
2022-07-28T09:22:03.368Z,22.70
2022-07-28T09:23:03.306Z,22.70
2022-07-28T09:24:03.439Z,22.70
2022-07-28T09:25:03.517Z,22.80
2022-07-28T09:26:04.857Z,22.80
2022-07-28T09:27:02.616Z,22.80
2022-07-28T09:28:02.726Z,22.80
2022-07-28T09:29:02.800Z,22.80
2022-07-28T09:30:03.361Z,22.80
2022-07-28T09:31:03.445Z,22.90
2022-07-28T09:32:03.563Z,22.90
2022-07-28T09:33:03.502Z,22.90
2022-07-28T09:34:03.665Z,22.90
2022-07-28T09:35:03.622Z,23.00
2022-07-28T09:36:02.640Z,23.00
2022-07-28T09:37:02.737Z,23.00
2022-07-28T09:38:02.701Z,23.00
2022-07-28T09:39:02.827Z,23.00
2022-07-28T09:40:04.088Z,23.00
2022-07-28T09:41:03.119Z,23.00
2022-07-28T09:42:03.086Z,23.00
2022-07-28T09:43:03.091Z,23.00
2022-07-28T09:44:03.118Z,23.00
2022-07-28T09:45:21.622Z,23.00
2022-07-28T09:46:03.342Z,23.10
2022-07-28T09:47:03.405Z,23.10
2022-07-28T09:48:03.429Z,23.10
2022-07-28T09:49:03.505Z,23.10
2022-07-28T09:50:03.480Z,23.20
2022-07-28T09:51:03.401Z,23.20
2022-07-28T09:52:03.451Z,23.20
2022-07-28T09:53:03.561Z,23.20
2022-07-28T09:54:03.575Z,23.30
2022-07-28T09:55:03.634Z,23.30
2022-07-28T09:56:03.621Z,23.30
2022-07-28T09:57:02.613Z,23.40
2022-07-28T09:58:02.637Z,23.40
2022-07-28T09:59:03.595Z,23.40
2022-07-28T10:00:02.618Z,23.40
2022-07-28T10:01:02.765Z,23.40
2022-07-28T10:02:02.889Z,23.40
2022-07-28T10:03:02.913Z,23.40
2022-07-28T10:04:03.062Z,23.40
2022-07-28T10:05:02.977Z,23.40
2022-07-28T10:06:02.993Z,23.40
2022-07-28T10:07:03.049Z,23.50
2022-07-28T10:08:03.093Z,23.50
2022-07-28T10:09:03.017Z,23.50
2022-07-28T10:10:03.151Z,23.50
2022-07-28T10:11:03.107Z,23.50
2022-07-28T10:12:03.191Z,23.60
2022-07-28T10:13:03.166Z,23.60
2022-07-28T10:14:03.174Z,23.70
2022-07-28T10:15:03.101Z,23.70
2022-07-28T10:16:03.360Z,23.70
2022-07-28T10:17:06.111Z,23.70
2022-07-28T10:18:03.365Z,23.80
2022-07-28T10:19:03.366Z,23.80
2022-07-28T10:20:03.428Z,23.70
2022-07-28T10:21:03.508Z,23.70
2022-07-28T10:22:03.537Z,23.70
2022-07-28T10:23:03.645Z,23.70
2022-07-28T10:24:03.640Z,23.80
2022-07-28T10:25:02.690Z,23.80
2022-07-28T10:26:02.694Z,23.80
2022-07-28T10:27:02.615Z,23.80
2022-07-28T10:28:02.618Z,23.90
2022-07-28T10:29:02.738Z,23.90
2022-07-28T10:30:02.821Z,23.90
2022-07-28T10:31:03.063Z,23.90
2022-07-28T10:32:02.916Z,23.90
2022-07-28T10:33:02.877Z,23.90
2022-07-28T10:34:02.900Z,24.00
2022-07-28T10:35:02.910Z,24.00
2022-07-28T10:36:02.950Z,24.00
2022-07-28T10:37:02.855Z,24.00
2022-07-28T10:38:03.033Z,24.10
2022-07-28T10:39:02.958Z,24.10
2022-07-28T10:40:06.595Z,24.10
2022-07-28T10:41:03.105Z,24.10
2022-07-28T10:42:03.115Z,24.10
2022-07-28T10:43:03.155Z,24.20
2022-07-28T10:44:03.131Z,24.10
2022-07-28T10:45:03.107Z,24.20
2022-07-28T10:46:07.660Z,24.20
2022-07-28T10:47:03.357Z,24.20
2022-07-28T10:48:03.305Z,24.20
2022-07-28T10:49:03.447Z,24.20
2022-07-28T10:50:03.430Z,24.30
2022-07-28T10:51:03.580Z,24.30
2022-07-28T10:52:09.125Z,24.30
2022-07-28T10:53:02.897Z,24.30
2022-07-28T10:54:02.967Z,24.30
2022-07-28T10:55:02.890Z,24.30
2022-07-28T10:56:02.912Z,24.30
2022-07-28T10:57:04.643Z,24.30
2022-07-28T10:58:10.759Z,24.30
2022-07-28T10:59:04.980Z,24.30
2022-07-28T11:00:12.094Z,24.40
2022-07-28T11:01:06.165Z,24.40
2022-07-28T11:02:03.286Z,24.40
2022-07-28T11:03:03.267Z,24.40
2022-07-28T11:04:03.290Z,24.40
2022-07-28T11:05:03.378Z,24.40
2022-07-28T11:06:03.501Z,24.40
2022-07-28T11:07:03.159Z,24.40
2022-07-28T11:08:03.276Z,24.50
2022-07-28T11:09:03.388Z,24.50
2022-07-28T11:10:03.368Z,24.50
2022-07-28T11:11:08.862Z,24.50
2022-07-28T11:12:03.509Z,24.50
2022-07-28T11:13:03.981Z,24.50
2022-07-28T11:14:03.550Z,24.50
2022-07-28T11:15:15.536Z,24.60
2022-07-28T11:16:02.771Z,24.60
2022-07-28T11:17:02.885Z,24.60
2022-07-28T11:18:02.957Z,24.60
2022-07-28T11:19:04.690Z,24.70
2022-07-28T11:21:03.486Z,24.70
2022-07-28T11:22:03.317Z,24.70
2022-07-28T11:23:03.325Z,24.70
2022-07-28T11:24:03.386Z,24.70
2022-07-28T11:25:18.302Z,24.70
2022-07-28T11:26:03.566Z,24.70
2022-07-28T11:27:04.090Z,24.80
2022-07-28T11:28:02.844Z,24.80
2022-07-28T11:29:02.648Z,24.80
2022-07-28T11:30:02.715Z,24.80
2022-07-28T11:31:02.911Z,24.80
2022-07-28T11:32:02.952Z,24.80
2022-07-28T11:33:02.950Z,24.90
2022-07-28T11:34:02.973Z,24.90
2022-07-28T11:35:03.011Z,24.90
2022-07-28T11:36:03.184Z,24.90
2022-07-28T11:37:03.282Z,24.90
2022-07-28T11:38:03.575Z,24.90
2022-07-28T11:39:03.410Z,24.90
2022-07-28T11:40:03.309Z,24.90
2022-07-28T11:41:03.380Z,24.90
2022-07-28T11:42:03.439Z,24.90
2022-07-28T11:43:03.439Z,24.90
2022-07-28T11:44:03.523Z,24.80
2022-07-28T11:45:03.595Z,24.80
2022-07-28T11:46:03.598Z,24.80
2022-07-28T11:47:02.682Z,24.80
2022-07-28T11:48:02.686Z,24.80
2022-07-28T11:49:02.815Z,24.80
2022-07-28T11:50:02.755Z,24.80
2022-07-28T11:51:02.795Z,24.70
2022-07-28T11:52:02.795Z,24.80
2022-07-28T11:53:02.700Z,24.80
2022-07-28T11:54:02.900Z,24.80
2022-07-28T11:55:02.838Z,24.90
2022-07-28T11:56:03.291Z,24.90
2022-07-28T11:57:02.882Z,24.90
2022-07-28T11:58:02.927Z,25.00
2022-07-28T11:59:02.883Z,25.00
2022-07-28T12:00:03.010Z,25.00
2022-07-28T12:01:03.298Z,25.00
2022-07-28T12:02:03.286Z,25.00
2022-07-28T12:03:03.476Z,25.00
2022-07-28T12:04:03.419Z,25.00
2022-07-28T12:05:03.587Z,25.00
2022-07-28T12:06:03.447Z,25.00
2022-07-28T12:07:03.577Z,25.00
2022-07-28T12:08:02.677Z,25.00
2022-07-28T12:09:02.669Z,25.00
2022-07-28T12:10:02.707Z,25.00
2022-07-28T12:11:03.145Z,25.00
2022-07-28T12:12:03.047Z,25.00
2022-07-28T12:13:03.034Z,25.00
2022-07-28T12:14:03.115Z,25.00
2022-07-28T12:15:06.815Z,25.00
2022-07-28T12:16:03.316Z,25.00
2022-07-28T12:17:03.520Z,25.00
2022-07-28T12:18:03.534Z,25.10
2022-07-28T12:19:03.388Z,25.10
2022-07-28T12:20:03.365Z,25.10
2022-07-28T12:21:05.179Z,25.10
2022-07-28T12:22:03.390Z,25.10
2022-07-28T12:23:03.553Z,25.10
2022-07-28T12:24:03.546Z,25.10
2022-07-28T12:25:03.538Z,25.10
2022-07-28T12:26:02.681Z,25.10
2022-07-28T12:27:02.785Z,25.10
2022-07-28T12:28:02.889Z,25.10
2022-07-28T12:29:03.021Z,25.10
2022-07-28T12:30:03.128Z,25.10
2022-07-28T12:31:03.104Z,25.10
2022-07-28T12:32:03.132Z,25.10
2022-07-28T12:33:03.246Z,25.10
2022-07-28T12:34:03.327Z,25.10
2022-07-28T12:35:03.309Z,25.10
2022-07-28T12:36:03.422Z,25.20
2022-07-28T12:37:03.390Z,25.10
2022-07-28T12:38:03.468Z,25.10
2022-07-28T12:39:03.628Z,25.10
2022-07-28T12:40:02.656Z,25.20
2022-07-28T12:41:02.637Z,25.10
2022-07-28T12:42:02.654Z,25.10
2022-07-28T12:43:02.702Z,25.20
2022-07-28T12:44:05.658Z,25.20
2022-07-28T12:45:02.981Z,25.20
2022-07-28T12:46:03.063Z,25.20
2022-07-28T12:47:03.025Z,25.20
2022-07-28T12:48:03.077Z,25.30
2022-07-28T12:49:03.365Z,25.30
2022-07-28T12:50:06.795Z,25.30
2022-07-28T12:51:03.084Z,25.30
2022-07-28T12:52:03.091Z,25.30
2022-07-28T12:53:03.303Z,25.40
2022-07-28T12:54:03.318Z,25.40